Time;durP1;ratioP1;P1;durP2;ratioP2;P2;SDS_P1;SDS_P2;PMS_P1;PMS_P2;Temp;Humidity;BMP_temperature;BMP_pressure;BME280_temperature;BME280_humidity;BME280_pressure;Samples;Min_cycle;Max_cycle;Signal;HPM_P1;HPM_P2
2023/12/08 00:00:21;;;;;;;3.38;1.50;;;18.90;48.00;;;;;;8358005;28;20045;-54
2023/12/08 00:04:22;;;;;;;5.30;1.30;;;18.90;48.10;;;;;;8358367;28;20107;-56
2023/12/08 00:08:22;;;;;;;1.45;1.35;;;18.90;48.10;;;;;;8359952;28;20025;-53
2023/12/08 00:12:23;;;;;;;2.05;1.58;;;18.90;48.20;;;;;;8359809;28;20063;-55
2023/12/08 00:16:24;;;;;;;2.55;1.55;;;18.90;48.20;;;;;;8359503;28;20061;-54
2023/12/08 00:20:25;;;;;;;1.80;1.45;;;18.80;48.20;;;;;;8359917;28;20435;-55
2023/12/08 00:24:26;;;;;;;;;;;18.80;48.20;;;;;;8360344;28;20041;-52
2023/12/08 00:28:27;;;;;;;2.97;1.30;;;18.80;48.20;;;;;;8359744;28;19912;-52
2023/12/08 00:32:27;;;;;;;1.45;1.00;;;18.80;48.30;;;;;;8359611;28;20116;-52
2023/12/08 00:36:28;;;;;;;1.77;1.30;;;18.80;48.20;;;;;;8359844;28;20094;-51
2023/12/08 00:40:29;;;;;;;2.80;1.35;;;18.80;48.30;;;;;;8359566;28;20029;-50
2023/12/08 00:44:29;;;;;;;2.42;1.40;;;18.80;48.30;;;;;;8359304;28;20037;-50
2023/12/08 00:48:30;;;;;;;2.25;1.20;;;18.80;48.30;;;;;;8359463;28;20040;-51
2023/12/08 00:52:31;;;;;;;1.85;1.60;;;18.70;48.30;;;;;;8358034;28;20486;-51
2023/12/08 00:56:31;;;;;;;2.33;1.38;;;18.70;48.30;;;;;;8359346;28;20037;-52
2023/12/08 01:00:32;;;;;;;2.58;1.42;;;18.70;48.40;;;;;;8359533;28;20568;-51
2023/12/08 01:04:33;;;;;;;1.65;1.33;;;18.70;48.40;;;;;;8359019;28;20505;-50
2023/12/08 01:08:34;;;;;;;1.67;1.02;;;18.70;48.40;;;;;;8359071;28;20044;-52
2023/12/08 01:12:35;;;;;;;2.65;1.33;;;18.70;48.40;;;;;;8359026;28;20057;-50
2023/12/08 01:16:42;;;;;;;1.05;0.95;;;18.70;48.40;;;;;;8358626;28;20651;-51
2023/12/08 01:20:43;;;;;;;1.95;1.00;;;18.60;48.50;;;;;;8358810;28;20029;-51
2023/12/08 01:24:43;;;;;;;2.13;1.27;;;18.70;48.40;;;;;;8358878;28;20040;-51
2023/12/08 01:28:44;;;;;;;1.77;1.30;;;18.60;48.40;;;;;;8364149;28;20025;-51
2023/12/08 01:32:45;;;;;;;2.28;1.40;;;18.60;48.50;;;;;;8364668;28;20091;-52
2023/12/08 01:36:45;;;;;;;1.30;1.20;;;18.70;48.50;;;;;;8364259;28;20478;-51
2023/12/08 01:40:46;;;;;;;1.45;1.20;;;18.60;48.50;;;;;;8364232;28;20115;-51
2023/12/08 01:44:47;;;;;;;2.55;1.30;;;18.70;48.50;;;;;;8364298;28;20103;-51
2023/12/08 01:48:50;;;;;;;1.42;1.17;;;18.60;48.50;;;;;;8364007;28;20116;-51
2023/12/08 01:52:52;;;;;;;1.20;0.80;;;18.60;48.50;;;;;;8363934;28;20031;-51
2023/12/08 01:56:52;;;;;;;1.90;1.20;;;18.60;48.50;;;;;;8363790;28;20036;-51
2023/12/08 02:00:55;;;;;;;1.63;1.10;;;18.60;48.60;;;;;;8363515;28;20044;-50
2023/12/08 02:04:58;;;;;;;1.88;1.40;;;18.60;48.60;;;;;;8364474;28;20041;-50
2023/12/08 02:08:59;;;;;;;1.13;1.02;;;18.60;48.60;;;;;;8363324;28;20079;-51
2023/12/08 02:13:00;;;;;;;3.03;1.15;;;18.60;48.60;;;;;;8362960;28;20053;-51
2023/12/08 02:17:08;;;;;;;1.95;1.20;;;18.60;49.10;;;;;;8363276;28;20120;-52
2023/12/08 02:21:09;;;;;;;1.48;1.00;;;18.60;48.60;;;;;;8362900;28;20035;-52
2023/12/08 02:25:10;;;;;;;;;;;18.60;48.60;;;;;;8363308;28;20044;-51
2023/12/08 02:29:11;;;;;;;1.17;1.03;;;18.60;48.60;;;;;;8362872;28;19909;-52
2023/12/08 02:33:18;;;;;;;2.65;1.48;;;18.60;48.60;;;;;;8362602;28;20067;-49
2023/12/08 02:37:21;;;;;;;1.83;1.30;;;18.60;48.60;;;;;;8362334;28;20497;-52
2023/12/08 02:41:22;;;;;;;1.58;1.17;;;18.50;48.60;;;;;;8362343;28;20021;-52
2023/12/08 02:45:22;;;;;;;0.90;0.80;;;18.50;48.60;;;;;;8362137;28;20108;-53
2023/12/08 02:49:23;;;;;;;1.20;1.02;;;18.50;48.60;;;;;;8362331;28;20501;-53
2023/12/08 02:53:24;;;;;;;0.98;0.90;;;18.50;48.60;;;;;;8362018;28;20030;-53
2023/12/08 02:57:24;;;;;;;1.58;1.20;;;18.50;48.60;;;;;;8361881;28;20083;-53
2023/12/08 03:01:25;;;;;;;1.40;1.25;;;18.60;48.60;;;;;;8361848;28;20497;-51
2023/12/08 03:05:26;;;;;;;1.10;1.00;;;18.50;48.60;;;;;;8361578;28;20021;-53
2023/12/08 03:09:26;;;;;;;2.20;1.40;;;18.50;48.60;;;;;;8361554;28;20033;-52
2023/12/08 03:13:27;;;;;;;2.22;0.93;;;18.50;48.60;;;;;;8361242;28;20048;-53
2023/12/08 03:17:28;;;;;;;1.20;1.10;;;18.50;48.60;;;;;;8361340;28;20033;-53
2023/12/08 03:21:29;;;;;;;1.38;1.20;;;18.50;48.60;;;;;;8361193;28;20029;-53
2023/12/08 03:25:29;;;;;;;2.78;1.10;;;18.50;48.70;;;;;;8361058;28;20663;-53
2023/12/08 03:29:30;;;;;;;1.80;1.17;;;18.50;48.70;;;;;;8361021;28;20033;-52
2023/12/08 03:33:31;;;;;;;0.85;0.85;;;18.50;48.70;;;;;;8360948;28;20030;-53
2023/12/08 03:37:32;;;;;;;1.30;1.10;;;18.50;48.70;;;;;;8360671;28;20047;-53
2023/12/08 03:41:32;;;;;;;1.40;1.17;;;18.50;48.70;;;;;;8361306;28;20036;-52
2023/12/08 03:45:33;;;;;;;1.48;1.13;;;18.50;48.70;;;;;;8360678;28;20479;-52
2023/12/08 03:49:34;;;;;;;0.95;0.88;;;18.50;48.70;;;;;;8359636;28;20025;-53
2023/12/08 03:53:34;;;;;;;1.15;1.10;;;18.50;48.70;;;;;;8360320;28;20482;-51
2023/12/08 03:57:35;;;;;;;2.00;1.27;;;18.50;48.70;;;;;;8360269;28;20051;-52
2023/12/08 04:01:36;;;;;;;1.48;1.10;;;18.50;48.70;;;;;;8360399;28;20032;-51
2023/12/08 04:05:36;;;;;;;1.23;1.13;;;18.50;48.70;;;;;;8358817;28;20029;-52
2023/12/08 04:09:37;;;;;;;1.63;1.10;;;18.50;48.70;;;;;;8359961;28;20025;-53
2023/12/08 04:13:39;;;;;;;1.75;1.27;;;18.50;48.70;;;;;;8359906;28;20049;-52
2023/12/08 04:17:40;;;;;;;1.95;0.93;;;18.50;48.70;;;;;;8360009;28;20033;-52
2023/12/08 04:21:40;;;;;;;1.80;1.08;;;18.50;48.70;;;;;;8359653;28;20040;-51
2023/12/08 04:25:41;;;;;;;2.55;1.20;;;18.50;48.70;;;;;;8359405;28;20120;-52
2023/12/08 04:29:42;;;;;;;1.30;1.15;;;18.40;48.70;;;;;;8359893;28;20595;-52
2023/12/08 04:33:42;;;;;;;0.95;0.90;;;18.40;48.70;;;;;;8359325;28;20041;-52
2023/12/08 04:37:43;;;;;;;1.67;1.10;;;18.40;48.70;;;;;;8359387;28;20032;-52
2023/12/08 04:41:44;;;;;;;1.20;1.10;;;18.40;48.70;;;;;;8359407;28;20033;-51
2023/12/08 04:45:44;;;;;;;1.02;0.93;;;18.40;48.70;;;;;;8359158;28;20514;-52
2023/12/08 04:49:45;;;;;;;1.50;0.85;;;18.40;48.70;;;;;;8359524;28;20025;-52
2023/12/08 04:53:46;;;;;;;2.38;1.13;;;18.40;48.70;;;;;;8359399;28;20044;-52
2023/12/08 04:57:46;;;;;;;1.10;1.00;;;18.40;48.80;;;;;;8359200;28;20514;-53
2023/12/08 05:01:51;;;;;;;1.38;1.15;;;18.40;48.70;;;;;;8363905;28;20072;-53
2023/12/08 05:05:52;;;;;;;1.15;1.05;;;18.40;48.80;;;;;;8365624;28;20033;-52
2023/12/08 05:09:52;;;;;;;1.17;1.08;;;18.40;48.70;;;;;;8363981;28;20037;-52
2023/12/08 05:13:53;;;;;;;2.08;1.35;;;18.50;48.80;;;;;;8365240;28;20482;-52
2023/12/08 05:17:54;;;;;;;1.00;0.90;;;18.50;48.70;;;;;;8365117;28;20036;-52
2023/12/08 05:21:55;;;;;;;1.23;1.13;;;18.50;48.60;;;;;;8365188;28;20368;-52
2023/12/08 05:25:56;;;;;;;1.02;0.93;;;18.60;48.50;;;;;;8364749;28;20491;-52
2023/12/08 05:29:56;;;;;;;1.40;1.30;;;18.60;48.30;;;;;;8364903;28;20392;-52
2023/12/08 05:33:57;;;;;;;1.33;1.15;;;18.70;48.20;;;;;;8364771;28;20037;-53
2023/12/08 05:37:58;;;;;;;1.80;1.30;;;18.70;48.10;;;;;;8364798;28;20045;-52
2023/12/08 05:41:59;;;;;;;1.10;0.93;;;18.70;48.10;;;;;;8364575;28;20037;-52
2023/12/08 05:45:59;;;;;;;1.20;1.10;;;18.80;48.10;;;;;;8364438;28;20033;-52
2023/12/08 05:50:01;;;;;;;1.83;1.08;;;18.70;48.00;;;;;;8364222;28;20104;-52
2023/12/08 05:54:02;;;;;;;2.25;1.00;;;18.80;48.10;;;;;;8364247;28;20071;-51
2023/12/08 05:58:03;;;;;;;1.73;1.27;;;18.80;48.10;;;;;;8363903;28;20044;-51
2023/12/08 06:02:04;;;;;;;1.20;1.10;;;18.80;48.10;;;;;;8363801;28;20040;-52
2023/12/08 06:06:05;;;;;;;1.45;1.10;;;18.80;48.10;;;;;;8363538;28;20029;-52
2023/12/08 06:10:07;;;;;;;1.23;1.13;;;18.80;48.00;;;;;;8363233;28;20068;-53
2023/12/08 06:14:09;;;;;;;0.95;0.88;;;18.80;48.00;;;;;;8362764;28;20135;-55
2023/12/08 06:18:10;;;;;;;;;;;18.80;48.00;;;;;;8363525;28;20434;-54
2023/12/08 06:22:10;;;;;;;2.20;1.10;;;18.80;48.00;;;;;;8363928;28;19909;-53
2023/12/08 06:26:11;;;;;;;1.55;1.30;;;18.80;48.00;;;;;;8362770;28;20063;-54
2023/12/08 06:30:12;;;;;;;1.75;1.45;;;18.80;48.00;;;;;;8363000;28;20052;-53
2023/12/08 06:34:13;;;;;;;1.45;0.93;;;18.80;48.00;;;;;;8362655;28;20546;-54
2023/12/08 06:38:14;;;;;;;1.02;0.90;;;18.80;48.00;;;;;;8362552;28;20098;-52
2023/12/08 06:42:14;;;;;;;1.30;1.20;;;18.80;48.00;;;;;;8362638;28;20033;-53
2023/12/08 06:46:15;;;;;;;1.45;1.13;;;18.80;48.00;;;;;;8362339;28;20036;-54
2023/12/08 06:50:16;;;;;;;1.10;1.00;;;18.80;48.00;;;;;;8362326;28;20505;-53
2023/12/08 06:54:16;;;;;;;1.13;1.00;;;18.80;48.00;;;;;;8362225;28;20064;-53
2023/12/08 06:58:18;;;;;;;1.33;1.10;;;18.80;47.90;;;;;;8362408;28;20029;-53
2023/12/08 07:02:18;;;;;;;1.85;1.13;;;18.80;47.90;;;;;;8360697;28;20123;-54
2023/12/08 07:06:21;;;;;;;1.08;0.90;;;18.80;47.90;;;;;;8361514;28;20033;-53
2023/12/08 07:10:21;;;;;;;2.05;0.98;;;18.80;48.00;;;;;;8361436;28;20056;-54
2023/12/08 07:14:22;;;;;;;1.75;1.05;;;18.80;48.00;;;;;;8361545;28;20091;-54
2023/12/08 07:18:23;;;;;;;1.08;0.98;;;18.80;48.00;;;;;;8360990;28;20033;-54
2023/12/08 07:22:23;;;;;;;1.35;1.13;;;18.80;48.00;;;;;;8360991;28;20048;-53
2023/12/08 07:26:24;;;;;;;1.25;1.05;;;18.80;48.00;;;;;;8360297;28;20029;-52
2023/12/08 07:30:25;;;;;;;1.38;1.10;;;18.80;48.00;;;;;;8359501;28;20386;-52
2023/12/08 07:34:25;;;;;;;1.13;1.00;;;18.80;48.00;;;;;;8361082;28;20029;-52
2023/12/08 07:38:26;;;;;;;1.38;1.27;;;18.80;47.90;;;;;;8359245;28;20060;-52
2023/12/08 07:42:27;;;;;;;2.95;1.20;;;18.80;47.90;;;;;;8360512;28;20033;-51
2023/12/08 07:46:27;;;;;;;0.98;0.88;;;18.80;48.50;;;;;;8360519;28;20109;-53
2023/12/08 07:50:28;;;;;;;1.30;1.10;;;18.80;47.90;;;;;;8360293;28;20037;-52
2023/12/08 07:54:32;;;;;;;1.10;1.00;;;18.80;47.90;;;;;;8360824;28;20029;-50
2023/12/08 07:58:32;;;;;;;1.25;1.15;;;18.80;47.90;;;;;;8360061;28;20048;-51
2023/12/08 08:02:33;;;;;;;1.48;1.05;;;18.80;47.90;;;;;;8360212;28;20091;-51
2023/12/08 08:06:34;;;;;;;1.85;1.20;;;18.80;47.90;;;;;;8359835;28;20508;-52
2023/12/08 08:10:34;;;;;;;1.95;1.05;;;18.80;48.00;;;;;;8359808;28;20085;-52
2023/12/08 08:14:35;;;;;;;1.70;1.35;;;18.80;47.90;;;;;;8358683;28;20163;-52
2023/12/08 08:18:36;;;;;;;1.30;1.00;;;18.80;48.00;;;;;;8359933;28;20033;-52
2023/12/08 08:22:36;;;;;;;1.58;0.98;;;18.80;48.00;;;;;;8359974;28;20037;-52
2023/12/08 08:26:41;;;;;;;1.25;1.15;;;18.80;48.00;;;;;;8359799;28;20037;-53
2023/12/08 08:30:43;;;;;;;1.10;0.90;;;18.80;48.00;;;;;;8358536;28;20158;-52
2023/12/08 08:34:44;;;;;;;1.20;1.10;;;18.80;48.00;;;;;;8361057;28;20029;-52
2023/12/08 08:38:45;;;;;;;1.55;1.13;;;18.80;48.00;;;;;;8366853;28;20040;-53
2023/12/08 08:42:46;;;;;;;1.20;1.10;;;18.90;48.00;;;;;;8366262;28;20064;-53
2023/12/08 08:46:46;;;;;;;1.33;0.90;;;18.80;48.00;;;;;;8366157;28;20033;-53
2023/12/08 08:50:48;;;;;;;1.10;1.00;;;18.80;48.10;;;;;;8365829;28;20040;-53
2023/12/08 08:54:49;;;;;;;1.08;0.98;;;18.80;48.10;;;;;;8365981;28;20036;-53
2023/12/08 08:58:49;;;;;;;1.23;1.00;;;18.80;48.20;;;;;;8365909;28;20040;-51
2023/12/08 09:02:51;;;;;;;1.55;1.20;;;18.70;48.20;;;;;;8365809;28;20478;-51
2023/12/08 09:06:52;;;;;;;0.90;0.80;;;18.70;48.30;;;;;;8365583;28;20094;-52
2023/12/08 09:10:53;;;;;;;1.27;1.17;;;18.70;48.30;;;;;;8365036;28;20057;-52
2023/12/08 09:14:53;;;;;;;1.00;0.82;;;18.70;48.20;;;;;;8365284;28;20440;-52
2023/12/08 09:18:54;;;;;;;1.17;1.02;;;18.80;48.20;;;;;;8365368;28;20033;-53
2023/12/08 09:22:55;;;;;;;1.10;1.00;;;18.80;48.10;;;;;;8363603;28;20029;-52
2023/12/08 09:26:55;;;;;;;0.70;0.70;;;18.80;48.10;;;;;;8364723;28;20032;-53
2023/12/08 09:30:57;;;;;;;2.38;1.00;;;18.80;48.10;;;;;;8364880;28;20068;-52
2023/12/08 09:34:58;;;;;;;2.15;1.15;;;18.80;48.10;;;;;;8364606;28;20037;-53
2023/12/08 09:38:58;;;;;;;1.02;0.82;;;18.80;48.10;;;;;;8364388;28;20048;-53
2023/12/08 09:43:14;;;;;;;0.90;0.90;;;18.80;48.10;;;;;;8364770;28;20115;-52
2023/12/08 09:47:18;;;;;;;1.38;1.00;;;18.80;48.10;;;;;;8363027;28;20025;-54
2023/12/08 09:51:20;;;;;;;3.03;1.10;;;18.80;48.10;;;;;;8364273;28;20025;-53
2023/12/08 09:55:21;;;;;;;;;;;18.80;48.20;;;;;;8364396;28;20520;-54
2023/12/08 09:59:24;;;;;;;1.57;1.00;;;18.80;48.10;;;;;;8362775;28;20465;-53
2023/12/08 10:03:25;;;;;;;1.00;0.90;;;18.80;48.10;;;;;;8363561;28;20075;-53
2023/12/08 10:07:31;;;;;;;0.70;0.65;;;18.90;48.10;;;;;;8364261;28;20036;-54
2023/12/08 10:11:33;;;;;;;1.10;1.00;;;18.80;48.10;;;;;;8363328;28;20063;-52
2023/12/08 10:15:33;;;;;;;0.88;0.85;;;18.90;48.10;;;;;;8363580;28;20033;-54
2023/12/08 10:19:34;;;;;;;1.00;0.82;;;18.90;48.10;;;;;;8363204;28;20109;-54
2023/12/08 10:23:35;;;;;;;1.02;1.00;;;18.90;48.10;;;;;;8363207;28;20037;-53
2023/12/08 10:27:36;;;;;;;1.20;1.10;;;18.90;48.20;;;;;;8362916;28;20108;-54
2023/12/08 10:31:40;;;;;;;1.17;1.08;;;18.90;48.20;;;;;;8363224;28;20383;-54
2023/12/08 10:35:41;;;;;;;1.35;0.90;;;18.90;48.10;;;;;;8362666;28;20044;-53
2023/12/08 10:39:42;;;;;;;1.60;1.10;;;18.90;48.20;;;;;;8363732;28;20029;-55
2023/12/08 10:43:45;;;;;;;1.52;1.02;;;18.90;48.20;;;;;;8362507;28;20033;-53
2023/12/08 10:47:49;;;;;;;1.17;0.90;;;18.80;48.10;;;;;;8362486;28;20041;-55
2023/12/08 10:51:50;;;;;;;1.15;1.00;;;18.90;48.20;;;;;;8362171;28;20505;-54
2023/12/08 10:55:55;;;;;;;2.20;1.00;;;18.90;48.20;;;;;;8362184;28;20403;-53
2023/12/08 11:00:01;;;;;;;0.75;0.75;;;18.90;48.20;;;;;;8362086;28;20029;-54
2023/12/08 11:04:05;;;;;;;2.30;0.93;;;18.90;48.20;;;;;;8361812;28;20025;-54
2023/12/08 11:08:12;;;;;;;0.88;0.85;;;18.80;48.10;;;;;;8361818;28;20018;-54
2023/12/08 11:12:16;;;;;;;0.80;0.80;;;18.80;48.10;;;;;;8361600;28;20057;-53
2023/12/08 11:16:39;;;;;;;1.40;0.98;;;18.90;48.20;;;;;;8361526;28;20481;-54
2023/12/08 11:20:40;;;;;;;0.82;0.70;;;18.80;48.20;;;;;;8361216;28;20025;-53
2023/12/08 11:24:42;;;;;;;0.95;0.88;;;18.90;48.20;;;;;;8361262;28;20037;-55
2023/12/08 11:28:55;;;;;;;0.98;0.98;;;18.90;48.20;;;;;;8361267;28;20505;-53
2023/12/08 11:33:20;;;;;;;0.93;0.80;;;18.80;48.20;;;;;;8360819;28;20033;-54
2023/12/08 11:37:22;;;;;;;0.70;0.70;;;18.90;48.30;;;;;;8360804;28;20044;-53
2023/12/08 11:41:25;;;;;;;1.23;1.00;;;18.80;48.20;;;;;;8360746;28;20072;-54
2023/12/08 11:45:26;;;;;;;1.10;0.90;;;18.90;48.30;;;;;;8360721;28;20036;-54
2023/12/08 11:49:26;;;;;;;1.08;1.00;;;18.80;48.20;;;;;;8360803;28;20431;-54
2023/12/08 11:53:27;;;;;;;1.00;0.98;;;18.90;48.30;;;;;;8359140;28;20497;-54
2023/12/08 11:57:28;;;;;;;1.10;1.00;;;18.80;48.30;;;;;;8360430;28;20100;-53
2023/12/08 12:01:29;;;;;;;0.80;0.80;;;18.90;48.30;;;;;;8360287;28;20063;-54
2023/12/08 12:05:30;;;;;;;1.05;0.82;;;18.90;48.30;;;;;;8360216;28;20029;-51
2023/12/08 12:09:33;;;;;;;1.42;1.08;;;18.90;48.30;;;;;;8359492;28;20159;-52
2023/12/08 12:13:37;;;;;;;1.33;0.88;;;18.80;48.30;;;;;;8359993;28;20036;-51
2023/12/08 12:17:39;;;;;;;1.10;0.88;;;18.80;48.30;;;;;;8359770;28;20395;-49
2023/12/08 12:21:42;;;;;;;1.15;1.05;;;18.80;48.30;;;;;;8359975;28;20096;-52
2023/12/08 12:25:45;;;;;;;1.38;0.80;;;18.80;48.30;;;;;;8359487;28;20040;-52
2023/12/08 12:29:46;;;;;;;0.80;0.80;;;18.90;48.30;;;;;;8359809;28;20406;-50
2023/12/08 12:33:47;;;;;;;0.80;0.80;;;18.80;48.30;;;;;;8359677;28;20120;-51
2023/12/08 12:37:47;;;;;;;1.05;0.70;;;18.90;48.30;;;;;;8359565;28;20033;-51
2023/12/08 12:41:48;;;;;;;1.75;0.85;;;18.90;48.30;;;;;;8359476;28;20037;-52
2023/12/08 12:45:49;;;;;;;1.00;0.80;;;18.90;48.40;;;;;;8359420;28;20072;-51
2023/12/08 12:50:09;;;;;;;0.75;0.75;;;18.90;48.30;;;;;;8359586;28;20060;-50
2023/12/08 12:54:10;;;;;;;1.58;0.90;;;18.90;48.30;;;;;;8359429;28;20029;-52
2023/12/08 12:58:26;;;;;;;1.10;1.00;;;18.90;48.30;;;;;;8359027;28;20540;-52
2023/12/08 13:02:28;;;;;;;1.45;1.10;;;18.90;48.30;;;;;;8359184;28;20071;-52
2023/12/08 13:06:30;;;;;;;0.98;0.70;;;18.80;48.30;;;;;;8359040;28;20029;-53
2023/12/08 13:10:31;;;;;;;0.65;0.65;;;18.80;48.30;;;;;;8358675;28;20077;-51
2023/12/08 13:14:31;;;;;;;0.60;0.60;;;18.90;48.40;;;;;;8359203;28;20033;-53
2023/12/08 13:18:32;;;;;;;1.13;1.05;;;18.90;48.40;;;;;;8358981;28;20041;-53
2023/12/08 13:22:33;;;;;;;0.77;0.73;;;18.90;48.40;;;;;;8362872;28;20167;-53
2023/12/08 13:26:33;;;;;;;1.10;1.00;;;18.90;48.40;;;;;;8364774;28;20026;-54
2023/12/08 13:30:35;;;;;;;1.10;0.80;;;18.90;48.40;;;;;;8364877;28;20036;-53
2023/12/08 13:34:36;;;;;;;1.33;0.95;;;18.80;48.40;;;;;;8363353;28;20037;-53
2023/12/08 13:38:36;;;;;;;1.02;0.88;;;18.80;48.40;;;;;;8364644;28;20044;-53
2023/12/08 13:42:37;;;;;;;1.17;0.70;;;18.80;48.40;;;;;;8364388;28;20032;-53
2023/12/08 13:46:38;;;;;;;0.63;0.60;;;18.90;48.40;;;;;;8364291;28;20063;-53
2023/12/08 13:50:39;;;;;;;0.80;0.80;;;18.90;48.40;;;;;;8364099;28;20033;-53
2023/12/08 13:54:40;;;;;;;0.88;0.75;;;18.90;48.50;;;;;;8364127;28;20501;-52
2023/12/08 13:58:40;;;;;;;0.80;0.70;;;18.90;48.40;;;;;;8363798;28;20040;-54
2023/12/08 14:02:41;;;;;;;0.95;0.80;;;18.90;48.40;;;;;;8364349;28;20037;-52
2023/12/08 14:06:42;;;;;;;0.70;0.70;;;18.90;48.40;;;;;;8363657;28;20033;-53
2023/12/08 14:10:43;;;;;;;1.38;1.00;;;18.90;48.40;;;;;;8363365;28;20098;-53
2023/12/08 14:14:43;;;;;;;0.80;0.70;;;18.90;48.40;;;;;;8363831;28;20114;-52
2023/12/08 14:18:44;;;;;;;0.77;0.70;;;18.90;48.40;;;;;;8363226;28;20120;-50
2023/12/08 14:22:46;;;;;;;1.45;1.35;;;18.90;48.40;;;;;;8363285;28;20037;-53
2023/12/08 14:26:47;;;;;;;0.82;0.50;;;18.90;48.50;;;;;;8362898;28;20033;-54
2023/12/08 14:30:47;;;;;;;0.85;0.73;;;18.90;48.50;;;;;;8363055;28;20139;-53
2023/12/08 14:34:48;;;;;;;1.10;1.00;;;18.90;48.50;;;;;;8362900;28;20037;-54
2023/12/08 14:38:49;;;;;;;1.05;0.80;;;18.90;48.50;;;;;;8362500;28;20082;-53
2023/12/08 14:42:49;;;;;;;0.68;0.68;;;18.80;48.60;;;;;;8362819;28;20475;-54
2023/12/08 14:46:50;;;;;;;0.93;0.77;;;18.80;48.60;;;;;;8362423;28;20025;-53
2023/12/08 14:50:52;;;;;;;0.70;0.70;;;18.80;48.60;;;;;;8360949;28;20678;-53
2023/12/08 14:54:53;;;;;;;0.88;0.65;;;18.80;48.70;;;;;;8362313;28;20032;-53
2023/12/08 14:58:54;;;;;;;0.60;0.60;;;18.80;48.60;;;;;;8361893;28;20033;-54
2023/12/08 15:02:54;;;;;;;0.90;0.85;;;18.80;48.60;;;;;;8362089;28;20033;-51
2023/12/08 15:06:55;;;;;;;1.10;0.90;;;18.80;48.50;;;;;;8361801;28;20043;-54
2023/12/08 15:10:56;;;;;;;1.23;0.70;;;18.80;48.50;;;;;;8361528;28;20053;-53
2023/12/08 15:14:56;;;;;;;1.05;0.90;;;18.90;48.60;;;;;;8361668;28;20060;-54
2023/12/08 15:18:57;;;;;;;0.80;0.80;;;18.90;48.50;;;;;;8361295;28;20033;-53
2023/12/08 15:22:59;;;;;;;0.70;0.70;;;18.90;48.60;;;;;;8361372;28;20387;-54
2023/12/08 15:27:00;;;;;;;0.70;0.70;;;18.80;48.60;;;;;;8360848;28;20043;-54
2023/12/08 15:31:03;;;;;;;0.70;0.70;;;18.80;48.60;;;;;;8361107;28;20033;-54
2023/12/08 15:35:04;;;;;;;0.70;0.70;;;18.80;48.60;;;;;;8361278;28;20431;-54
2023/12/08 15:39:05;;;;;;;0.80;0.80;;;18.80;48.50;;;;;;8360655;28;20674;-53
2023/12/08 15:43:05;;;;;;;0.70;0.70;;;18.90;48.60;;;;;;8360723;28;20500;-51
2023/12/08 15:47:06;;;;;;;0.90;0.82;;;18.90;48.60;;;;;;8359912;28;20029;-53
2023/12/08 15:51:13;;;;;;;0.80;0.80;;;18.90;48.60;;;;;;8360636;28;20033;-54
2023/12/08 15:55:14;;;;;;;0.93;0.80;;;18.80;48.60;;;;;;8360226;28;20032;-53
2023/12/08 15:59:14;;;;;;;0.75;0.73;;;18.80;48.60;;;;;;8360787;28;20036;-51
2023/12/08 16:03:15;;;;;;;0.80;0.75;;;18.80;48.60;;;;;;8360165;28;20387;-54
2023/12/08 16:07:16;;;;;;;0.77;0.77;;;18.80;48.60;;;;;;8360262;28;20037;-51
2023/12/08 16:11:27;;;;;;;0.68;0.68;;;18.80;48.60;;;;;;8359671;28;20047;-54
2023/12/08 16:15:27;;;;;;;0.70;0.70;;;18.80;48.70;;;;;;8359837;28;20397;-55
2023/12/08 16:19:28;;;;;;;1.05;0.95;;;18.80;48.70;;;;;;8360023;28;20269;-52
2023/12/08 16:23:30;;;;;;;0.95;0.75;;;18.80;48.70;;;;;;8359635;28;20119;-55
2023/12/08 16:27:30;;;;;;;0.93;0.80;;;18.80;48.60;;;;;;8359400;28;20067;-53
2023/12/08 16:31:32;;;;;;;0.57;0.57;;;18.90;48.70;;;;;;8358557;28;20112;-53
2023/12/08 16:35:33;;;;;;;0.82;0.70;;;18.80;48.70;;;;;;8359675;28;20041;-51
2023/12/08 16:39:34;;;;;;;0.60;0.60;;;18.80;48.70;;;;;;8359366;28;20425;-53
2023/12/08 16:43:35;;;;;;;0.60;0.60;;;18.80;48.70;;;;;;8359468;28;20099;-50
2023/12/08 16:47:36;;;;;;;;;;;18.80;48.70;;;;;;8359784;28;20044;-52
2023/12/08 16:51:37;;;;;;;0.80;0.73;;;18.80;48.70;;;;;;8359278;28;19909;-53
2023/12/08 16:55:37;;;;;;;0.70;0.70;;;18.80;48.70;;;;;;8360421;28;20116;-52
2023/12/08 16:59:38;;;;;;;0.80;0.80;;;18.80;48.70;;;;;;8365635;28;20548;-52
2023/12/08 17:03:39;;;;;;;0.90;0.80;;;18.80;48.70;;;;;;8365796;28;20044;-53
2023/12/08 17:07:40;;;;;;;0.88;0.70;;;18.80;48.70;;;;;;8366046;28;20029;-52
2023/12/08 17:11:41;;;;;;;0.70;0.70;;;18.80;48.70;;;;;;8365700;28;20079;-51
2023/12/08 17:15:41;;;;;;;0.93;0.85;;;18.80;48.70;;;;;;8365474;28;20437;-53
2023/12/08 17:19:42;;;;;;;0.80;0.77;;;18.80;48.70;;;;;;8365423;28;20033;-51
2023/12/08 17:23:43;;;;;;;1.25;0.90;;;18.80;48.80;;;;;;8365215;28;20114;-52
2023/12/08 17:27:43;;;;;;;0.70;0.70;;;18.80;48.90;;;;;;8365179;28;20097;-52
2023/12/08 17:31:44;;;;;;;0.77;0.77;;;18.70;48.90;;;;;;8364950;28;20493;-52
2023/12/08 17:35:46;;;;;;;0.85;0.77;;;18.70;48.90;;;;;;8364724;28;20091;-50
2023/12/08 17:39:46;;;;;;;0.80;0.80;;;18.70;48.90;;;;;;8364779;28;20033;-53
2023/12/08 17:43:47;;;;;;;1.00;0.82;;;18.70;48.90;;;;;;8365473;28;20028;-53
2023/12/08 17:47:48;;;;;;;1.00;0.80;;;18.70;48.90;;;;;;8364584;28;20032;-52
2023/12/08 17:51:49;;;;;;;0.70;0.70;;;18.80;48.90;;;;;;8364319;28;20197;-53
2023/12/08 17:55:49;;;;;;;1.00;0.98;;;18.70;48.90;;;;;;8364262;28;20037;-53
2023/12/08 17:59:50;;;;;;;0.70;0.70;;;18.70;48.90;;;;;;8364302;28;20033;-54
2023/12/08 18:03:51;;;;;;;0.82;0.80;;;18.70;49.00;;;;;;8364040;28;20438;-50
2023/12/08 18:07:51;;;;;;;0.80;0.80;;;18.70;49.00;;;;;;8362669;28;20029;-53
2023/12/08 18:11:52;;;;;;;0.65;0.65;;;18.70;49.50;;;;;;8363489;28;20474;-54
2023/12/08 18:15:54;;;;;;;0.63;0.63;;;18.70;49.00;;;;;;8363473;28;20461;-53
2023/12/08 18:19:55;;;;;;;0.73;0.70;;;18.70;48.90;;;;;;8363390;28;20060;-54
2023/12/08 18:23:56;;;;;;;;;;;18.80;48.90;;;;;;8363606;28;20075;-53
2023/12/08 18:28:00;;;;;;;0.75;0.70;;;18.80;48.90;;;;;;8362967;28;19904;-54
2023/12/08 18:32:01;;;;;;;0.60;0.60;;;18.80;48.90;;;;;;8362865;28;20104;-53
2023/12/08 18:36:02;;;;;;;0.90;0.80;;;18.80;48.80;;;;;;8363154;28;20052;-53
2023/12/08 18:40:04;;;;;;;0.90;0.80;;;18.80;48.80;;;;;;8362973;28;20051;-54
2023/12/08 18:44:08;;;;;;;0.98;0.98;;;18.80;48.80;;;;;;8362394;28;20029;-55
2023/12/08 18:48:08;;;;;;;0.60;0.60;;;18.80;48.70;;;;;;8363228;28;20036;-54
2023/12/08 18:52:09;;;;;;;1.05;0.77;;;18.80;48.70;;;;;;8362446;28;20040;-53
2023/12/08 18:56:10;;;;;;;0.80;0.80;;;18.80;48.70;;;;;;8362296;28;20376;-52
2023/12/08 19:00:11;;;;;;;1.08;0.90;;;18.80;48.70;;;;;;8362270;28;20400;-53
2023/12/08 19:04:12;;;;;;;0.80;0.80;;;18.80;48.70;;;;;;8362047;28;20116;-52
2023/12/08 19:08:12;;;;;;;0.70;0.70;;;18.80;48.70;;;;;;8361777;28;20395;-53
2023/12/08 19:12:13;;;;;;;0.63;0.60;;;18.80;48.70;;;;;;8360297;28;20470;-52
2023/12/08 19:16:14;;;;;;;0.70;0.70;;;18.80;48.70;;;;;;8361662;28;20036;-52
2023/12/08 19:20:15;;;;;;;0.80;0.80;;;18.80;48.70;;;;;;8361649;28;20449;-51
2023/12/08 19:24:16;;;;;;;0.63;0.63;;;18.80;48.70;;;;;;8361348;28;20037;-52
2023/12/08 19:28:17;;;;;;;0.70;0.70;;;18.80;48.70;;;;;;8360051;28;20037;-52
2023/12/08 19:32:17;;;;;;;0.60;0.55;;;18.80;48.70;;;;;;8361363;28;20033;-52
2023/12/08 19:36:18;;;;;;;0.70;0.70;;;18.80;48.70;;;;;;8360914;28;20486;-52
2023/12/08 19:40:19;;;;;;;0.68;0.68;;;18.80;48.70;;;;;;8361002;28;20037;-50
2023/12/08 19:44:21;;;;;;;0.80;0.80;;;18.80;48.70;;;;;;8360610;28;20037;-53
2023/12/08 19:48:21;;;;;;;0.73;0.73;;;18.80;48.70;;;;;;8360858;28;20402;-51
2023/12/08 19:52:24;;;;;;;0.75;0.75;;;18.80;48.80;;;;;;8360570;28;20033;-52
2023/12/08 19:56:25;;;;;;;0.95;0.95;;;18.80;48.70;;;;;;8360159;28;20072;-52
2023/12/08 20:00:25;;;;;;;1.73;1.05;;;18.90;48.80;;;;;;8360516;28;20495;-52
2023/12/08 20:04:26;;;;;;;0.80;0.80;;;18.80;48.70;;;;;;8360979;28;20037;-52
2023/12/08 20:08:27;;;;;;;0.70;0.70;;;18.90;48.80;;;;;;8360096;28;20033;-52
2023/12/08 20:12:28;;;;;;;0.80;0.80;;;18.90;48.80;;;;;;8359953;28;20560;-52
2023/12/08 20:16:29;;;;;;;0.98;0.90;;;18.80;48.70;;;;;;8360054;28;20040;-52
2023/12/08 20:20:30;;;;;;;0.73;0.73;;;18.80;48.70;;;;;;8359817;28;20399;-53
2023/12/08 20:24:31;;;;;;;0.80;0.70;;;18.90;48.80;;;;;;8359846;28;20040;-52
2023/12/08 20:28:32;;;;;;;0.63;0.63;;;18.90;48.80;;;;;;8359680;28;20029;-52
2023/12/08 20:32:33;;;;;;;1.23;0.90;;;18.80;48.70;;;;;;8359085;28;20039;-53
2023/12/08 20:36:33;;;;;;;1.00;0.80;;;18.90;48.80;;;;;;8360080;28;20033;-51
2023/12/08 20:40:34;;;;;;;0.90;0.68;;;18.80;48.70;;;;;;8359637;28;20033;-53
2023/12/08 20:44:35;;;;;;;1.00;0.80;;;18.90;48.80;;;;;;8359489;28;20045;-51
2023/12/08 20:48:35;;;;;;;1.08;0.77;;;18.90;48.80;;;;;;8359627;28;20359;-53
2023/12/08 20:52:36;;;;;;;0.70;0.70;;;18.80;48.70;;;;;;8359390;28;20036;-53
2023/12/08 20:56:37;;;;;;;0.80;0.70;;;18.90;48.80;;;;;;8359206;28;20041;-53